createdAt,value
2022-07-31T00:00:22.662Z,95013.97
2022-07-31T00:02:49.866Z,94996.44
2022-07-31T00:05:17.024Z,94997.47
2022-07-31T00:07:43.821Z,95008.88
2022-07-31T00:10:10.729Z,94997.69
2022-07-31T00:12:37.569Z,95005.44
2022-07-31T00:15:06.702Z,95001.91
2022-07-31T00:17:34.509Z,94988.31
2022-07-31T00:20:01.940Z,94993.56
2022-07-31T00:22:29.165Z,95001.09
2022-07-31T00:24:56.226Z,95005.06
2022-07-31T00:27:23.686Z,94966.81
2022-07-31T00:29:51.263Z,94973.19
2022-07-31T00:32:18.298Z,94983.25
2022-07-31T00:34:45.085Z,94969.16
2022-07-31T00:37:11.868Z,94976.25
2022-07-31T00:39:38.805Z,94989.41
2022-07-31T00:42:05.982Z,94981.44
2022-07-31T00:44:32.913Z,94986.38
2022-07-31T00:47:00.750Z,94973.53
2022-07-31T00:49:37.808Z,94974.13
2022-07-31T00:52:05.783Z,94990.09
2022-07-31T00:54:33.137Z,94969.88
2022-07-31T00:57:00.168Z,94990.28
2022-07-31T00:59:28.866Z,95007.56
2022-07-31T01:01:56.581Z,95000.94
2022-07-31T01:04:23.687Z,94985.00
2022-07-31T01:06:50.833Z,94998.94
2022-07-31T01:09:17.654Z,94991.34
2022-07-31T01:12:02.725Z,94998.00
2022-07-31T01:14:35.656Z,95000.94
2022-07-31T01:17:05.066Z,95000.66
2022-07-31T01:19:38.099Z,94987.59
2022-07-31T01:22:35.262Z,94991.81
2022-07-31T01:25:34.707Z,94996.53
2022-07-31T01:28:43.615Z,94991.88
2022-07-31T01:31:26.551Z,94995.97
2022-07-31T01:34:10.585Z,94985.38
2022-07-31T01:36:44.594Z,94990.66
2022-07-31T01:39:11.850Z,94992.53
2022-07-31T01:41:43.186Z,94984.59
2022-07-31T01:44:14.183Z,94996.06
2022-07-31T01:46:44.046Z,94992.66
2022-07-31T01:49:13.288Z,94991.69
2022-07-31T01:51:43.801Z,94993.22
2022-07-31T01:54:13.087Z,94984.66
2022-07-31T01:56:41.001Z,94992.84
2022-07-31T01:59:20.026Z,94976.34
2022-07-31T02:02:09.880Z,94966.13
2022-07-31T02:04:38.785Z,94987.13
2022-07-31T02:07:08.309Z,94983.31
2022-07-31T02:09:37.370Z,94977.22
2022-07-31T02:12:09.687Z,94969.97
2022-07-31T02:14:40.746Z,94979.19
2022-07-31T02:17:09.743Z,94972.63
2022-07-31T02:19:59.985Z,94968.66
2022-07-31T02:22:29.386Z,94957.09
2022-07-31T02:24:56.340Z,94965.25
2022-07-31T02:27:54.285Z,94962.22
2022-07-31T02:30:13.548Z,94971.06
2022-07-31T02:32:41.338Z,94960.78
2022-07-31T02:35:09.688Z,94965.06
2022-07-31T02:37:38.931Z,94971.19
2022-07-31T02:40:08.049Z,94973.72
2022-07-31T02:42:36.855Z,94977.31
2022-07-31T02:45:06.350Z,94954.09
2022-07-31T02:47:33.615Z,94970.25
2022-07-31T02:50:04.122Z,94965.03
2022-07-31T02:52:32.146Z,94964.88
2022-07-31T02:55:00.439Z,94930.81
2022-07-31T02:57:27.428Z,94952.78
2022-07-31T02:59:54.563Z,94958.63
2022-07-31T03:02:22.747Z,94961.34
2022-07-31T03:05:04.211Z,94969.19
2022-07-31T03:07:31.562Z,94958.75
2022-07-31T03:09:58.879Z,94960.97
2022-07-31T03:12:52.633Z,94966.84
2022-07-31T03:15:21.569Z,94962.34
2022-07-31T03:17:50.430Z,94966.03
2022-07-31T03:20:25.014Z,94950.16
2022-07-31T03:22:52.055Z,94961.06
2022-07-31T03:25:21.969Z,94956.25
2022-07-31T03:27:52.346Z,94950.72
2022-07-31T03:30:25.896Z,94959.19
2022-07-31T03:32:56.610Z,94958.75
2022-07-31T03:35:25.298Z,94968.91
2022-07-31T03:37:52.439Z,94955.88
2022-07-31T03:40:19.563Z,94965.09
2022-07-31T03:42:49.028Z,94967.91
2022-07-31T03:45:16.492Z,94966.78
2022-07-31T03:47:43.543Z,94967.91
2022-07-31T03:50:11.642Z,94964.47
2022-07-31T03:52:38.741Z,94958.34
2022-07-31T03:55:07.580Z,94967.75
2022-07-31T03:57:36.453Z,94960.59
2022-07-31T04:00:05.018Z,94943.69
2022-07-31T04:02:43.457Z,94957.06
2022-07-31T04:05:30.481Z,94973.25
2022-07-31T04:07:58.043Z,94962.56
2022-07-31T04:10:25.267Z,94960.91
2022-07-31T04:12:52.458Z,94956.53
2022-07-31T04:15:19.231Z,94961.69
2022-07-31T04:17:46.135Z,94968.44
2022-07-31T04:20:16.332Z,94961.59
2022-07-31T04:22:43.106Z,94957.22
2022-07-31T04:25:18.555Z,94959.75
2022-07-31T04:28:11.790Z,94967.19
2022-07-31T04:30:39.268Z,94963.06
2022-07-31T04:33:06.446Z,94963.25
2022-07-31T04:35:33.493Z,94967.94
2022-07-31T04:38:00.623Z,94961.25
2022-07-31T04:40:30.262Z,94968.25
2022-07-31T04:42:57.031Z,94987.06
2022-07-31T04:45:23.886Z,94970.75
2022-07-31T04:47:50.827Z,94975.47
2022-07-31T04:50:17.730Z,94984.56
2022-07-31T04:52:55.574Z,94975.31
2022-07-31T04:55:24.375Z,94984.94
2022-07-31T04:57:51.282Z,94976.47
2022-07-31T05:00:18.440Z,94987.56
2022-07-31T05:02:45.487Z,94963.19
2022-07-31T05:05:12.386Z,94988.44
2022-07-31T05:07:41.966Z,94967.91
2022-07-31T05:10:35.839Z,94992.81
2022-07-31T05:13:02.710Z,94966.97
2022-07-31T05:15:31.429Z,94956.72
2022-07-31T05:17:58.242Z,94943.34
2022-07-31T05:20:53.954Z,94966.38
2022-07-31T05:23:32.282Z,94965.66
2022-07-31T05:26:07.633Z,94960.47
2022-07-31T05:28:35.066Z,94961.72
2022-07-31T05:31:02.419Z,94967.34
2022-07-31T05:33:29.967Z,94968.78
2022-07-31T05:35:57.801Z,94948.38
2022-07-31T05:38:25.367Z,94959.69
2022-07-31T05:41:10.925Z,94956.16
2022-07-31T05:43:56.219Z,94964.53
2022-07-31T05:46:27.543Z,94981.88
2022-07-31T05:48:54.336Z,94992.88
2022-07-31T05:51:22.814Z,94985.22
2022-07-31T05:53:49.802Z,94970.16
2022-07-31T05:56:35.537Z,94995.63
2022-07-31T05:59:02.558Z,94991.63
2022-07-31T06:01:29.608Z,95000.56
2022-07-31T06:03:57.708Z,94995.53
2022-07-31T06:06:30.827Z,95000.03
2022-07-31T06:09:03.565Z,94991.72
2022-07-31T06:11:35.310Z,94969.19
2022-07-31T06:14:02.097Z,95007.78
2022-07-31T06:16:38.113Z,94990.38
2022-07-31T06:19:05.183Z,94948.69
2022-07-31T06:21:31.988Z,94979.13
2022-07-31T06:23:59.129Z,95006.28
2022-07-31T06:26:31.997Z,94987.16
2022-07-31T06:28:59.223Z,94992.06
2022-07-31T06:31:26.178Z,94957.13
2022-07-31T06:33:56.293Z,94992.66
2022-07-31T06:36:27.758Z,94986.56
2022-07-31T06:38:58.779Z,94973.97
2022-07-31T06:41:50.119Z,94995.25
2022-07-31T06:44:45.763Z,94982.34
2022-07-31T06:47:31.770Z,94975.41
2022-07-31T06:50:06.123Z,94970.59
2022-07-31T06:52:37.863Z,95003.81
2022-07-31T06:55:07.227Z,94975.31
2022-07-31T06:57:34.565Z,95003.28
2022-07-31T07:00:06.856Z,94995.28
2022-07-31T07:02:41.895Z,94998.69
2022-07-31T07:05:08.911Z,95006.72
2022-07-31T07:07:37.003Z,94980.78
2022-07-31T07:10:06.223Z,94995.66
2022-07-31T07:12:59.255Z,95007.88
2022-07-31T07:15:27.710Z,95015.16
2022-07-31T07:17:54.484Z,95005.03
2022-07-31T07:20:31.813Z,95002.25
2022-07-31T07:22:58.632Z,95002.38
2022-07-31T07:25:36.652Z,94991.41
2022-07-31T07:28:03.781Z,94999.19
2022-07-31T07:30:30.734Z,94996.38
2022-07-31T07:33:00.355Z,94993.13
2022-07-31T07:35:33.796Z,95005.75
2022-07-31T07:38:07.126Z,95001.97
2022-07-31T07:40:37.009Z,95002.00
2022-07-31T07:43:04.387Z,94998.69
2022-07-31T07:45:32.507Z,94998.06
2022-07-31T07:48:06.025Z,94999.94
2022-07-31T07:50:57.125Z,94984.59
2022-07-31T07:53:29.958Z,95003.91
2022-07-31T07:56:15.569Z,95003.50
2022-07-31T07:58:45.282Z,94985.13
2022-07-31T08:01:35.096Z,94962.28
2022-07-31T08:04:14.826Z,94991.03
2022-07-31T08:06:41.627Z,95009.00
2022-07-31T08:09:09.425Z,94971.75
2022-07-31T08:12:03.655Z,94985.47
2022-07-31T08:14:53.676Z,94969.44
2022-07-31T08:17:59.236Z,94963.91
2022-07-31T08:20:27.436Z,94996.88
2022-07-31T08:22:54.494Z,94994.34
2022-07-31T08:25:21.429Z,94991.75
2022-07-31T08:27:50.030Z,94970.16
2022-07-31T08:30:17.067Z,95012.19
2022-07-31T08:32:43.986Z,94983.16
2022-07-31T08:35:20.925Z,94944.38
2022-07-31T08:38:02.793Z,95013.06
2022-07-31T08:40:42.959Z,94991.06
2022-07-31T08:44:00.761Z,94979.72
2022-07-31T08:46:02.938Z,95023.50
2022-07-31T08:48:36.502Z,94979.72
2022-07-31T08:51:05.474Z,95016.69
2022-07-31T08:53:51.678Z,95024.22
2022-07-31T08:56:20.984Z,95021.22
2022-07-31T08:58:47.836Z,94997.00
2022-07-31T09:01:15.610Z,95000.00
2022-07-31T09:03:42.954Z,95009.34
2022-07-31T09:06:12.716Z,94981.69
2022-07-31T09:08:39.605Z,94987.00
2022-07-31T09:11:10.524Z,94966.81
2022-07-31T09:14:01.461Z,94997.16
2022-07-31T09:16:47.606Z,94997.78
2022-07-31T09:19:53.049Z,94964.22
2022-07-31T09:22:29.586Z,94966.88
2022-07-31T09:25:12.326Z,94999.00
2022-07-31T09:27:40.862Z,94974.41
2022-07-31T09:30:08.869Z,95025.88
2022-07-31T09:32:54.710Z,95015.78
2022-07-31T09:35:39.962Z,94999.25
2022-07-31T09:38:08.967Z,94989.09
2022-07-31T09:40:57.432Z,94957.44
2022-07-31T09:43:51.476Z,94975.16
2022-07-31T09:46:19.118Z,94996.72
2022-07-31T09:48:59.891Z,94977.13
2022-07-31T09:51:41.978Z,94962.56
2022-07-31T09:54:27.904Z,95001.34
2022-07-31T09:57:14.551Z,94998.88
2022-07-31T09:59:44.679Z,94986.41
2022-07-31T10:02:15.156Z,94960.97
2022-07-31T10:04:47.769Z,94977.31
2022-07-31T10:07:31.519Z,94965.94
2022-07-31T10:10:07.893Z,95028.81
2022-07-31T10:12:55.546Z,95011.13
2022-07-31T10:15:26.017Z,94965.72
2022-07-31T10:18:35.698Z,94963.59
2022-07-31T10:21:34.083Z,94937.56
2022-07-31T10:24:11.352Z,94961.22
2022-07-31T10:27:10.841Z,94954.06
2022-07-31T10:29:27.558Z,94954.81
2022-07-31T10:32:00.927Z,94958.22
2022-07-31T10:34:28.886Z,94944.84
2022-07-31T10:37:24.781Z,94979.00
2022-07-31T10:40:37.022Z,94953.78
2022-07-31T10:43:36.826Z,94947.97
2022-07-31T10:46:12.110Z,94982.09
2022-07-31T10:48:53.810Z,94959.31
2022-07-31T10:51:48.610Z,94957.94
2022-07-31T10:54:44.049Z,94951.16
2022-07-31T10:57:35.019Z,94983.72
2022-07-31T11:00:29.461Z,94987.28
2022-07-31T11:03:19.987Z,94930.75
2022-07-31T11:06:05.441Z,94963.34
2022-07-31T11:09:04.790Z,94942.44
2022-07-31T11:12:00.736Z,94934.94
2022-07-31T11:14:39.731Z,94944.88
2022-07-31T11:18:16.598Z,94918.22
2022-07-31T11:20:32.074Z,94926.00
2022-07-31T11:23:05.910Z,94955.91
2022-07-31T11:25:35.407Z,94918.88
2022-07-31T11:28:24.905Z,94932.44
2022-07-31T11:30:53.434Z,94938.63
2022-07-31T11:33:41.863Z,94962.91
2022-07-31T11:36:24.199Z,94961.28
2022-07-31T11:38:54.089Z,94942.84
2022-07-31T11:41:23.917Z,94915.44
2022-07-31T11:43:52.308Z,94942.06
2022-07-31T11:46:30.193Z,94935.88
2022-07-31T11:48:57.692Z,94917.41
2022-07-31T11:51:25.936Z,94920.25
2022-07-31T11:53:57.302Z,94933.84
2022-07-31T11:56:26.903Z,94939.63
2022-07-31T11:58:58.214Z,94946.47
2022-07-31T12:01:29.502Z,94953.91
2022-07-31T12:04:08.995Z,94916.09
2022-07-31T12:06:37.278Z,94930.44
2022-07-31T12:09:04.649Z,94931.78
2022-07-31T12:11:31.740Z,94915.66
2022-07-31T12:13:59.536Z,94904.28
2022-07-31T12:16:26.562Z,94893.34
2022-07-31T12:18:59.632Z,94907.94
2022-07-31T12:21:35.868Z,94929.44
2022-07-31T12:24:10.288Z,94892.03
2022-07-31T12:26:37.184Z,94903.38
2022-07-31T12:29:06.638Z,94885.44
2022-07-31T12:31:54.234Z,94894.28
2022-07-31T12:34:43.477Z,94895.56
2022-07-31T12:37:16.873Z,94899.34
2022-07-31T12:39:54.350Z,94903.47
2022-07-31T12:42:30.817Z,94909.97
2022-07-31T12:45:19.591Z,94867.94
2022-07-31T12:47:52.494Z,94907.47
2022-07-31T12:50:23.825Z,94908.84
2022-07-31T12:52:50.998Z,94937.53
2022-07-31T12:55:18.191Z,94887.34
2022-07-31T12:57:51.660Z,94905.19
2022-07-31T13:00:24.138Z,94913.69
2022-07-31T13:02:52.028Z,94917.66
2022-07-31T13:05:19.919Z,94889.84
2022-07-31T13:07:47.214Z,94901.09
2022-07-31T13:10:20.177Z,94887.84
2022-07-31T13:12:50.521Z,94885.38
2022-07-31T13:15:20.715Z,94884.50
2022-07-31T13:17:50.831Z,94893.53
2022-07-31T13:20:19.306Z,94915.16
2022-07-31T13:22:46.431Z,94880.31
2022-07-31T13:25:13.352Z,94886.25
2022-07-31T13:27:41.403Z,94894.13
2022-07-31T13:30:09.427Z,94902.50
2022-07-31T13:32:36.323Z,94862.53
2022-07-31T13:35:19.547Z,94873.66
2022-07-31T13:37:51.115Z,94867.72
2022-07-31T13:40:19.672Z,94879.97
2022-07-31T13:42:46.864Z,94858.19
2022-07-31T13:45:13.662Z,94878.84
2022-07-31T13:47:50.252Z,94871.66
2022-07-31T13:50:18.078Z,94865.31
2022-07-31T13:52:44.961Z,94893.28
2022-07-31T13:55:11.978Z,94855.41
2022-07-31T13:57:38.957Z,94873.53
2022-07-31T14:00:06.520Z,94877.31
2022-07-31T14:02:33.401Z,94874.16
2022-07-31T14:05:00.359Z,94860.53
2022-07-31T14:07:45.435Z,94876.25
2022-07-31T14:10:19.933Z,94858.78
2022-07-31T14:12:47.840Z,94863.41
2022-07-31T14:15:15.070Z,94867.56
2022-07-31T14:17:42.186Z,94843.47
2022-07-31T14:20:09.617Z,94856.53
2022-07-31T14:22:36.452Z,94888.38
2022-07-31T14:25:04.246Z,94861.94
2022-07-31T14:27:31.135Z,94855.75
2022-07-31T14:29:57.917Z,94844.16
2022-07-31T14:32:25.262Z,94826.03
2022-07-31T14:34:52.224Z,94863.78
2022-07-31T14:37:20.709Z,94858.31
2022-07-31T14:39:47.846Z,94829.50
2022-07-31T14:42:14.851Z,94850.03
2022-07-31T14:44:49.026Z,94836.97
2022-07-31T14:47:17.069Z,94823.53
2022-07-31T14:50:07.613Z,94844.72
2022-07-31T14:52:31.860Z,94853.28
2022-07-31T14:55:00.142Z,94855.19
2022-07-31T14:57:28.267Z,94852.63
2022-07-31T14:59:55.025Z,94826.59
2022-07-31T15:02:22.929Z,94849.84
2022-07-31T15:04:51.688Z,94846.13
2022-07-31T15:07:34.622Z,94842.81
2022-07-31T15:10:04.897Z,94833.63
2022-07-31T15:12:32.233Z,94836.69
2022-07-31T15:14:59.223Z,94846.09
2022-07-31T15:17:26.157Z,94822.50
2022-07-31T15:19:53.155Z,94836.19
2022-07-31T15:22:20.540Z,94820.31
2022-07-31T15:24:50.022Z,94809.25
2022-07-31T15:27:18.927Z,94826.13
2022-07-31T15:30:03.417Z,94843.63
2022-07-31T15:32:33.894Z,94836.72
2022-07-31T15:35:00.909Z,94815.31
2022-07-31T15:37:28.238Z,94824.16
2022-07-31T15:40:01.933Z,94827.53
2022-07-31T15:42:33.351Z,94826.06
2022-07-31T15:45:00.269Z,94821.97
2022-07-31T15:47:27.079Z,94806.63
2022-07-31T15:49:53.894Z,94829.22
2022-07-31T15:52:20.659Z,94833.91
2022-07-31T15:54:51.772Z,94815.59
2022-07-31T15:57:23.062Z,94810.69
2022-07-31T15:59:50.832Z,94827.00
2022-07-31T16:02:18.142Z,94792.13
2022-07-31T16:04:48.621Z,94804.66
2022-07-31T16:08:29.796Z,94791.78
2022-07-31T16:10:15.194Z,94791.22
2022-07-31T16:12:47.928Z,94793.53
2022-07-31T16:15:16.730Z,94770.13
2022-07-31T16:17:44.263Z,94778.63
2022-07-31T16:20:20.687Z,94787.78
2022-07-31T16:22:58.704Z,94770.88
2022-07-31T16:25:27.491Z,94777.75
2022-07-31T16:27:54.906Z,94752.41
2022-07-31T16:30:22.407Z,94765.13
2022-07-31T16:32:49.851Z,94787.25
2022-07-31T16:35:16.842Z,94772.22
2022-07-31T16:37:50.904Z,94737.53
2022-07-31T16:40:30.861Z,94747.75
2022-07-31T16:43:49.756Z,94757.28
2022-07-31T16:45:50.924Z,94745.72
2022-07-31T16:48:18.168Z,94730.88
2022-07-31T16:50:47.418Z,94751.09
2022-07-31T16:54:10.647Z,94720.63
2022-07-31T16:56:12.095Z,94720.56
2022-07-31T16:58:39.431Z,94723.72
2022-07-31T17:01:53.262Z,94739.41
2022-07-31T17:04:00.741Z,94759.53
2022-07-31T17:06:36.388Z,94738.22
2022-07-31T17:09:17.076Z,94718.44
2022-07-31T17:11:53.038Z,94733.34
2022-07-31T17:14:22.601Z,94689.19
2022-07-31T17:16:50.783Z,94722.66
2022-07-31T17:19:40.990Z,94720.69
2022-07-31T17:22:07.453Z,94736.22
2022-07-31T17:24:37.254Z,94719.13
2022-07-31T17:27:07.035Z,94737.34
2022-07-31T17:29:34.799Z,94700.00
2022-07-31T17:32:01.862Z,94719.84
2022-07-31T17:34:28.834Z,94753.34
2022-07-31T17:36:56.373Z,94708.50
2022-07-31T17:39:25.198Z,94694.25
2022-07-31T17:41:55.403Z,94716.03
2022-07-31T17:44:22.184Z,94722.53
2022-07-31T17:46:51.286Z,94727.75
2022-07-31T17:49:20.373Z,94728.78
2022-07-31T17:51:58.759Z,94730.53
2022-07-31T17:54:28.460Z,94746.19
2022-07-31T17:56:55.214Z,94730.69
2022-07-31T17:59:23.208Z,94751.22
2022-07-31T18:01:52.260Z,94760.19
2022-07-31T18:04:21.357Z,94746.13
2022-07-31T18:06:54.463Z,94754.41
2022-07-31T18:09:23.363Z,94746.41
2022-07-31T18:11:51.543Z,94756.00
2022-07-31T18:14:19.344Z,94747.72
2022-07-31T18:16:47.879Z,94753.09
2022-07-31T18:19:15.134Z,94742.78
2022-07-31T18:21:42.217Z,94756.88
2022-07-31T18:24:09.104Z,94753.09
2022-07-31T18:26:37.290Z,94768.75
2022-07-31T18:29:04.959Z,94754.63
2022-07-31T18:31:35.404Z,94759.06
2022-07-31T18:34:04.590Z,94773.47
2022-07-31T18:36:32.981Z,94759.34
2022-07-31T18:39:00.101Z,94734.34
2022-07-31T18:41:27.535Z,94765.41
2022-07-31T18:43:54.468Z,94766.78
2022-07-31T18:46:21.455Z,94765.19
2022-07-31T18:48:53.092Z,94758.72
2022-07-31T18:51:23.181Z,94750.44
2022-07-31T18:53:50.334Z,94762.41
2022-07-31T18:56:17.263Z,94760.22
2022-07-31T18:58:44.057Z,94767.16
2022-07-31T19:01:10.945Z,94760.72
2022-07-31T19:03:37.722Z,94753.16
2022-07-31T19:06:05.380Z,94772.53
2022-07-31T19:08:32.267Z,94752.81
2022-07-31T19:10:59.600Z,94758.56
2022-07-31T19:13:26.608Z,94773.78
2022-07-31T19:15:53.485Z,94772.78
2022-07-31T19:18:26.425Z,94780.22
2022-07-31T19:21:23.600Z,94774.13
2022-07-31T19:23:44.157Z,94784.59
2022-07-31T19:26:11.297Z,94782.06
2022-07-31T19:28:39.878Z,94776.31
2022-07-31T19:31:07.558Z,94786.34
2022-07-31T19:33:34.809Z,94788.06
2022-07-31T19:36:03.102Z,94788.78
2022-07-31T19:38:31.771Z,94777.69
2022-07-31T19:40:59.013Z,94781.75
2022-07-31T19:43:25.964Z,94782.97
2022-07-31T19:46:02.739Z,94799.28
2022-07-31T19:48:40.665Z,94792.84
2022-07-31T19:51:07.924Z,94782.13
2022-07-31T19:53:35.827Z,94785.66
2022-07-31T19:56:05.963Z,94789.94
2022-07-31T19:58:35.104Z,94781.56
2022-07-31T20:01:05.046Z,94788.09
2022-07-31T20:03:32.361Z,94781.75
2022-07-31T20:05:59.763Z,94774.56
2022-07-31T20:08:28.138Z,94771.94
2022-07-31T20:11:03.514Z,94768.09
2022-07-31T20:13:32.593Z,94754.69
2022-07-31T20:16:00.340Z,94755.47
2022-07-31T20:18:28.792Z,94747.75
2022-07-31T20:21:07.045Z,94767.16
2022-07-31T20:23:38.117Z,94734.94
2022-07-31T20:26:11.528Z,94754.53
2022-07-31T20:28:40.416Z,94761.47
2022-07-31T20:31:16.158Z,94766.09
2022-07-31T20:33:56.515Z,94768.09
2022-07-31T20:36:24.005Z,94755.47
2022-07-31T20:38:51.114Z,94757.75
2022-07-31T20:41:18.320Z,94764.41
2022-07-31T20:43:45.810Z,94740.25
2022-07-31T20:46:12.855Z,94737.69
2022-07-31T20:48:40.265Z,94760.97
2022-07-31T20:51:09.222Z,94763.47
2022-07-31T20:53:37.115Z,94753.53
2022-07-31T20:56:04.212Z,94752.09
2022-07-31T20:58:31.504Z,94765.44
2022-07-31T21:00:58.461Z,94750.22
2022-07-31T21:03:25.249Z,94750.84
2022-07-31T21:05:52.253Z,94758.72
2022-07-31T21:08:19.167Z,94753.00
2022-07-31T21:10:46.165Z,94746.53
2022-07-31T21:13:13.403Z,94741.13
2022-07-31T21:15:44.527Z,94748.81
2022-07-31T21:18:13.588Z,94720.81
2022-07-31T21:20:51.946Z,94738.47
2022-07-31T21:23:24.036Z,94738.47
2022-07-31T21:25:55.959Z,94728.56
2022-07-31T21:28:24.393Z,94723.41
2022-07-31T21:30:53.720Z,94703.97
2022-07-31T21:33:20.905Z,94724.63
2022-07-31T21:35:48.031Z,94729.63
2022-07-31T21:38:16.065Z,94747.41
2022-07-31T21:40:43.945Z,94734.56
2022-07-31T21:43:11.812Z,94733.53
2022-07-31T21:45:55.202Z,94730.06
2022-07-31T21:48:25.242Z,94737.06
2022-07-31T21:50:53.241Z,94706.56
2022-07-31T21:53:20.586Z,94738.53
2022-07-31T21:55:47.397Z,94743.94
2022-07-31T21:58:14.297Z,94736.59
2022-07-31T22:00:41.563Z,94749.06
2022-07-31T22:03:08.766Z,94730.16
2022-07-31T22:05:54.565Z,94743.81
2022-07-31T22:08:21.411Z,94750.75
2022-07-31T22:10:50.854Z,94747.19
2022-07-31T22:13:18.247Z,94740.66
2022-07-31T22:15:51.434Z,94733.50
2022-07-31T22:18:30.034Z,94750.22
2022-07-31T22:20:57.652Z,94726.41
2022-07-31T22:23:25.935Z,94738.56
2022-07-31T22:25:53.341Z,94738.94
2022-07-31T22:28:22.487Z,94753.84
2022-07-31T22:30:50.010Z,94737.25
2022-07-31T22:33:16.982Z,94725.03
2022-07-31T22:35:44.080Z,94730.50
2022-07-31T22:38:13.630Z,94718.53
2022-07-31T22:40:43.970Z,94726.97
2022-07-31T22:44:11.049Z,94727.03
2022-07-31T22:46:00.551Z,94726.84
2022-07-31T22:48:28.088Z,94707.28
2022-07-31T22:50:56.174Z,94736.22
2022-07-31T22:53:24.146Z,94721.38
2022-07-31T22:55:53.122Z,94713.25
2022-07-31T22:58:23.534Z,94732.44
2022-07-31T23:00:50.458Z,94741.94
2022-07-31T23:03:17.354Z,94728.31
2022-07-31T23:06:05.286Z,94731.59
2022-07-31T23:08:30.838Z,94735.44
2022-07-31T23:10:57.743Z,94735.47
2022-07-31T23:13:24.656Z,94720.84
2022-07-31T23:15:51.640Z,94711.13
2022-07-31T23:18:18.529Z,94691.31
2022-07-31T23:20:45.325Z,94738.44
2022-07-31T23:23:12.113Z,94722.66
2022-07-31T23:25:38.894Z,94731.63
2022-07-31T23:28:05.697Z,94733.28
2022-07-31T23:30:32.467Z,94732.34
2022-07-31T23:32:59.350Z,94736.50
2022-07-31T23:35:26.111Z,94715.38
2022-07-31T23:37:52.876Z,94717.00
2022-07-31T23:40:19.655Z,94718.66
2022-07-31T23:42:46.471Z,94731.78
2022-07-31T23:45:15.793Z,94729.81
2022-07-31T23:47:45.558Z,94714.84
2022-07-31T23:50:14.253Z,94726.59
2022-07-31T23:52:41.805Z,94724.19
2022-07-31T23:55:09.187Z,94712.44
2022-07-31T23:57:36.506Z,94704.81
